MBS International Airport
KMBS : now visible

Airfield :











YOU CAN JOIN US ON...

 
LOGIN :

Register | Disclaimer

   EN    FR    IT 

 









Legend :    VFR   Marginal VFR   IFR   Intensive IFR   Very Intensive IFR
Visi :
Ceiling :
>= 8 km
>= 3000ft
5 to 8 km
1000 to 3000 ft
1500m to 5 km
500 to 1000 ft
800 to 1500m
200 to 500 ft
< 800m
< 200 ft
Symbols :   Thunderstorms  Fog  Heavy snow  Heavy precipitations  Wind > 20 kt






- Airport Elevation : 668 ft
- IATA code : MBS


KMBS - MBS International

CURRENT METAR :
  • 072053Z 36007KT 9SM FEW031 14/01 A2966 RMK AO2 SLP046 T01390006 57010

EXPIRED METARs :
  • 072032Z 31007KT 10SM SCT017 BKN030 13/01 A2969 RMK AO2 T01330006
  • 072017Z 00000KT 10SM BKN015 OVC020 13/01 A2967 RMK AO2 T01280006
  • 071953Z AUTO 19006KT 8SM OVC011 11/01 A2967 RMK AO2 SLP047 T01110006
  • 071922Z AUTO 17006KT 7SM BKN008 OVC012 11/01 A2968 RMK AO2 T01060006
  • 071907Z AUTO 17010KT 8SM BKN012 OVC025 11/01 A2969 RMK AO2 T01060006
  • 071853Z AUTO 18012KT 8SM FEW010 SCT017 OVC025 11/01 A2969 RMK AO2 PRESFR SLP055 T01110006
  • 071850Z AUTO 17014KT 8SM SCT010 BKN017 OVC025 11/01 A2969 RMK AO2 PRESFR

TAF KMBS
Valid from the 07 at 19:00 until the 08 at 18:00 UTC


071927Z 0719/0818 17007KT P6SM OVC015
TEMPO 0719/0720 BKN009
FM072100 19009KT P6SM SCT015 BKN040
FM072300 20007KT 4SM SHRA BR OVC025
TEMPO 0800/0802 2SM TSRA BR OVC025CB
FM080400 32015KT P6SM OVC012
FM081400 30008KT P6SM SCT015



MET'MAP, your aeronautical weather chart ! - Copyright ORBIFLY December 2007 - Disclaimer

ORBIFLY MET'MAP TEAM :

Programming & Development : Alexandra Zaïnal
Concept & original design : Baudouin d'Aumeries
Assistance for programming : Marc-Olivier Méhu
Technical & hardware support : Manuel Goepfert

Contact : metmap@orbifly.com




SOURCES & CREDITS :

   NOAA       Earth
Advisory